Time;durP1;ratioP1;P1;durP2;ratioP2;P2;SDS_P1;SDS_P2;PMS_P1;PMS_P2;Temp;Humidity;BMP_temperature;BMP_pressure;BME280_temperature;BME280_humidity;BME280_pressure;Samples;Min_cycle;Max_cycle;Signal;HPM_P1;HPM_P2
2022/09/18 00:00:01;;;;;;;7.77;2.40;;;10.50;99.90;;;;;;5095448;28;20180;-71
2022/09/18 00:02:32;;;;;;;7.03;2.57;;;10.60;99.90;;;;;;5095404;28;20173;-74
2022/09/18 00:04:58;;;;;;;13.43;2.27;;;10.40;99.90;;;;;;5095081;28;20378;-69
2022/09/18 00:07:23;;;;;;;5.10;1.70;;;10.40;99.90;;;;;;5094036;28;20438;-73
2022/09/18 00:09:49;;;;;;;3.80;2.13;;;10.40;99.90;;;;;;5095199;28;20686;-74
2022/09/18 00:12:15;;;;;;;15.33;2.93;;;10.40;99.90;;;;;;5095253;28;20165;-74
2022/09/18 00:14:40;;;;;;;2.73;1.73;;;10.40;99.90;;;;;;5077133;28;20173;-74
2022/09/18 00:17:06;;;;;;;6.70;1.93;;;10.30;99.90;;;;;;5094006;28;20272;-73
2022/09/18 00:19:32;;;;;;;7.40;1.90;;;10.30;99.90;;;;;;5095212;28;20178;-74
2022/09/18 00:21:57;;;;;;;6.70;1.90;;;10.20;99.90;;;;;;5077322;28;20188;-74
2022/09/18 00:24:23;;;;;;;4.33;1.90;;;10.30;99.90;;;;;;5094862;28;20249;-74
2022/09/18 00:26:49;;;;;;;6.93;1.80;;;10.20;99.90;;;;;;5093480;28;20171;-74
2022/09/18 00:29:16;;;;;;;4.40;1.73;;;10.20;99.90;;;;;;5076749;28;20228;-67
2022/09/18 00:31:43;;;;;;;7.63;1.87;;;10.20;99.90;;;;;;5094573;28;20557;-74
2022/09/18 00:34:13;;;;;;;19.40;2.20;;;10.20;99.90;;;;;;5094645;28;20851;-68
2022/09/18 00:36:40;;;;;;;3.87;2.07;;;10.20;99.90;;;;;;5075977;28;20828;-74
2022/09/18 00:39:07;;;;;;;7.43;2.20;;;10.20;99.90;;;;;;5076521;28;20504;-68
2022/09/18 00:41:37;;;;;;;11.50;1.87;;;10.20;99.90;;;;;;5094055;28;20407;-68
2022/09/18 00:44:39;;;;;;;6.40;2.50;;;10.20;99.90;;;;;;5076507;28;20468;-73
2022/09/18 00:47:10;;;;;;;5.10;1.80;;;10.30;99.90;;;;;;5093513;28;20927;-73
2022/09/18 00:49:42;;;;;;;6.07;2.67;;;10.30;99.90;;;;;;5094360;28;20946;-74
2022/09/18 00:52:09;;;;;;;4.27;1.80;;;10.30;99.90;;;;;;5076167;28;20387;-73
2022/09/18 00:54:39;;;;;;;8.00;2.30;;;10.30;99.90;;;;;;5076542;28;20416;-67
2022/09/18 00:57:09;;;;;;;6.07;2.03;;;10.30;99.90;;;;;;5093499;28;20454;-72
2022/09/18 00:59:36;;;;;;;5.10;1.90;;;10.40;99.90;;;;;;5094231;28;20408;-68
2022/09/18 01:02:03;;;;;;;11.20;2.93;;;10.40;99.90;;;;;;5093834;28;20486;-72
2022/09/18 01:04:29;;;;;;;13.67;2.67;;;10.30;99.90;;;;;;5094237;28;20737;-73
2022/09/18 01:07:19;;;;;;;4.20;1.70;;;10.30;99.90;;;;;;5093252;28;20491;-71
2022/09/18 01:10:01;;;;;;;8.40;1.90;;;10.40;99.90;;;;;;5093963;28;20410;-73
2022/09/18 01:13:07;;;;;;;12.43;2.40;;;10.50;99.90;;;;;;5094152;28;20425;-73
2022/09/18 01:15:56;;;;;;;8.27;2.53;;;10.50;99.90;;;;;;5093964;28;20374;-68
2022/09/18 01:18:31;;;;;;;9.17;2.20;;;10.50;99.90;;;;;;5093223;28;20459;-73
2022/09/18 01:21:15;;;;;;;7.50;2.40;;;10.50;99.90;;;;;;5093327;28;20377;-73
2022/09/18 01:24:08;;;;;;;6.97;1.50;;;10.30;99.90;;;;;;5093843;28;20409;-74
2022/09/18 01:27:04;;;;;;;12.50;2.67;;;10.30;99.90;;;;;;5092974;28;20377;-73
2022/09/18 01:29:34;;;;;;;5.60;2.00;;;10.30;99.90;;;;;;5074180;28;20478;-68
2022/09/18 01:32:21;;;;;;;6.60;2.10;;;10.40;99.90;;;;;;5093919;28;20432;-67
2022/09/18 01:35:13;;;;;;;5.20;2.13;;;10.40;99.90;;;;;;5093684;28;20396;-68
2022/09/18 01:37:52;;;;;;;6.40;2.13;;;10.40;99.90;;;;;;5091809;28;20409;-68
2022/09/18 01:40:29;;;;;;;2.20;2.00;;;10.40;99.90;;;;;;5093555;28;20379;-68
2022/09/18 01:42:59;;;;;;;4.97;1.67;;;10.50;99.90;;;;;;5093521;28;20384;-68
2022/09/18 01:45:31;;;;;;;3.93;1.93;;;10.50;99.90;;;;;;5093511;28;20401;-68
2022/09/18 01:48:01;;;;;;;5.80;1.90;;;10.50;99.90;;;;;;5092594;28;20510;-74
2022/09/18 01:50:31;;;;;;;9.13;1.90;;;10.50;99.90;;;;;;5075266;28;20501;-68
2022/09/18 01:53:21;;;;;;;7.50;1.83;;;10.50;99.90;;;;;;5093352;28;20399;-68
2022/09/18 01:56:15;;;;;;;9.10;2.27;;;10.50;99.90;;;;;;5092675;28;20407;-73
2022/09/18 01:58:40;;;;;;;6.27;2.80;;;10.50;99.90;;;;;;5074499;28;20402;-73
2022/09/18 02:01:14;;;;;;;12.90;2.80;;;10.50;99.90;;;;;;5075073;28;20394;-67
2022/09/18 02:03:48;;;;;;;4.30;1.80;;;10.40;99.90;;;;;;5093208;28;20221;-73
2022/09/18 02:06:41;;;;;;;7.23;2.10;;;10.40;99.90;;;;;;5092178;28;20470;-68
2022/09/18 02:09:09;;;;;;;4.03;2.20;;;10.40;99.90;;;;;;5093076;28;20441;-70
2022/09/18 02:11:39;;;;;;;6.07;2.37;;;10.40;99.90;;;;;;5093063;28;20549;-72
2022/09/18 02:14:09;;;;;;;6.23;2.13;;;10.30;99.90;;;;;;5074676;28;20404;-70
2022/09/18 02:16:50;;;;;;;17.17;2.50;;;10.20;99.90;;;;;;5092338;28;20494;-73
2022/09/18 02:19:50;;;;;;;8.03;3.03;;;10.20;99.90;;;;;;5093125;28;20472;-73
2022/09/18 02:22:20;;;;;;;4.47;2.00;;;10.20;99.90;;;;;;5092815;28;20375;-67
2022/09/18 02:24:50;;;;;;;6.57;1.77;;;10.20;99.90;;;;;;5092978;28;20383;-72
2022/09/18 02:27:18;;;;;;;7.00;2.07;;;10.20;99.90;;;;;;5074056;28;20394;-73
2022/09/18 02:29:45;;;;;;;6.63;2.27;;;10.20;99.90;;;;;;5074483;28;20803;-69
2022/09/18 02:32:12;;;;;;;5.33;2.63;;;10.20;99.90;;;;;;5092437;28;20378;-74
2022/09/18 02:34:38;;;;;;;10.90;2.60;;;10.10;99.90;;;;;;5075041;28;20386;-67
2022/09/18 02:37:12;;;;;;;10.97;2.27;;;10.10;99.90;;;;;;5074255;28;20434;-71
2022/09/18 02:39:45;;;;;;;10.23;4.13;;;10.10;99.90;;;;;;5074541;28;20665;-67
2022/09/18 02:42:25;;;;;;;11.60;2.30;;;10.10;99.90;;;;;;5092781;28;20474;-73
2022/09/18 02:45:05;;;;;;;5.53;2.70;;;10.20;99.90;;;;;;5092765;28;20431;-68
2022/09/18 02:47:39;;;;;;;11.93;3.00;;;10.30;99.90;;;;;;5091491;28;20468;-70
2022/09/18 02:50:17;;;;;;;15.27;2.67;;;10.30;99.90;;;;;;5092961;28;20463;-72
2022/09/18 02:53:03;;;;;;;3.57;2.00;;;10.30;99.90;;;;;;5096862;28;20374;-70
2022/09/18 02:55:59;;;;;;;10.63;2.37;;;10.30;99.90;;;;;;5096740;28;20389;-67
2022/09/18 02:58:47;;;;;;;8.90;3.10;;;10.30;99.90;;;;;;5096211;28;20510;-67
2022/09/18 03:01:15;;;;;;;12.53;2.60;;;10.30;99.90;;;;;;5046766;28;20389;-67
2022/09/18 03:03:42;;;;;;;10.63;1.97;;;10.30;99.90;;;;;;5096597;28;20543;-73
2022/09/18 03:06:08;;;;;;;6.10;1.90;;;10.30;99.90;;;;;;5095628;28;20429;-74
2022/09/18 03:08:34;;;;;;;8.13;3.30;;;10.40;99.90;;;;;;5095849;28;20429;-74
2022/09/18 03:11:00;;;;;;;6.03;2.90;;;10.30;99.90;;;;;;5096369;28;20429;-75
2022/09/18 03:13:26;;;;;;;4.50;1.87;;;10.40;99.90;;;;;;5096451;28;20385;-75
2022/09/18 03:15:54;;;;;;;6.90;1.80;;;10.30;99.90;;;;;;5096055;28;20398;-74
2022/09/18 03:18:19;;;;;;;5.90;1.60;;;10.30;99.90;;;;;;5095477;28;20485;-75
2022/09/18 03:20:46;;;;;;;9.23;1.80;;;10.30;99.90;;;;;;5078389;28;20481;-75
2022/09/18 03:23:11;;;;;;;10.97;2.40;;;10.20;99.90;;;;;;5096311;28;20526;-70
2022/09/18 03:25:37;;;;;;;8.17;1.67;;;10.10;99.90;;;;;;5077926;28;20402;-70
2022/09/18 03:28:03;;;;;;;4.97;2.00;;;10.20;99.90;;;;;;5094563;28;20196;-71
2022/09/18 03:30:30;;;;;;;2.93;1.50;;;10.10;99.90;;;;;;5077995;28;20600;-70
2022/09/18 03:32:55;;;;;;;9.90;1.87;;;10.10;99.90;;;;;;5096033;28;20402;-69
2022/09/18 03:35:21;;;;;;;6.63;2.00;;;10.10;99.90;;;;;;5096100;28;20374;-75
2022/09/18 03:37:47;;;;;;;11.20;3.03;;;10.10;99.90;;;;;;5077094;28;20219;-75
2022/09/18 03:40:14;;;;;;;4.17;2.70;;;10.20;99.90;;;;;;5077730;28;20507;-74
2022/09/18 03:42:43;;;;;;;9.70;2.13;;;10.20;99.90;;;;;;5077606;28;20410;-74
2022/09/18 03:45:09;;;;;;;6.47;2.10;;;10.10;99.90;;;;;;5095025;28;20406;-74
2022/09/18 03:47:35;;;;;;;3.60;1.43;;;10.00;99.90;;;;;;5094774;28;20451;-69
2022/09/18 03:50:01;;;;;;;2.37;1.60;;;10.10;99.90;;;;;;5077769;28;22357;-73
2022/09/18 03:52:29;;;;;;;3.27;1.23;;;10.20;99.90;;;;;;5095586;28;20179;-73
2022/09/18 03:54:54;;;;;;;5.80;2.23;;;10.20;99.90;;;;;;5095610;28;20397;-75
2022/09/18 03:57:20;;;;;;;6.83;2.60;;;10.10;99.90;;;;;;5076747;28;20934;-72
2022/09/18 03:59:46;;;;;;;2.33;1.40;;;10.10;99.90;;;;;;5077506;28;20196;-74
2022/09/18 04:02:11;;;;;;;2.53;1.50;;;10.00;99.90;;;;;;5094936;28;20630;-73
2022/09/18 04:04:37;;;;;;;1.53;1.23;;;10.00;99.90;;;;;;5094920;28;20179;-69
2022/09/18 04:07:03;;;;;;;3.70;1.50;;;10.00;99.90;;;;;;5076462;28;20176;-74
2022/09/18 04:09:29;;;;;;;6.77;1.50;;;10.00;99.90;;;;;;5077038;28;20265;-68
2022/09/18 04:11:55;;;;;;;7.17;2.37;;;9.90;99.90;;;;;;5095159;28;20426;-74
2022/09/18 04:14:21;;;;;;;4.20;1.33;;;9.90;99.90;;;;;;5077320;28;20211;-74
2022/09/18 04:16:48;;;;;;;6.40;2.20;;;9.90;99.90;;;;;;5075988;28;20173;-74
2022/09/18 04:19:14;;;;;;;4.40;1.63;;;9.90;99.90;;;;;;5095159;28;20423;-74
2022/09/18 04:21:39;;;;;;;1.73;1.30;;;10.00;99.90;;;;;;5076626;28;20438;-68
2022/09/18 04:24:05;;;;;;;7.67;1.47;;;10.00;99.90;;;;;;5094953;28;20790;-73
2022/09/18 04:26:33;;;;;;;11.93;2.13;;;9.90;99.90;;;;;;5076046;28;20225;-74
2022/09/18 04:29:02;;;;;;;1.90;1.57;;;9.90;99.90;;;;;;5094711;28;20622;-67
2022/09/18 04:31:28;;;;;;;3.63;2.10;;;9.90;99.90;;;;;;5094787;28;20426;-73
2022/09/18 04:33:53;;;;;;;8.60;2.27;;;9.90;99.90;;;;;;5077080;28;20531;-67
2022/09/18 04:36:19;;;;;;;5.67;2.13;;;9.80;99.90;;;;;;5076097;28;20176;-74
2022/09/18 04:38:45;;;;;;;3.10;1.37;;;9.90;99.90;;;;;;5094581;28;20188;-72
2022/09/18 04:41:11;;;;;;;3.67;1.70;;;10.00;99.90;;;;;;5094003;28;20176;-71
2022/09/18 04:43:37;;;;;;;3.90;1.80;;;10.00;99.90;;;;;;5094682;28;20434;-73
2022/09/18 04:46:03;;;;;;;4.20;1.50;;;10.00;99.90;;;;;;5093654;28;20183;-69
2022/09/18 04:48:28;;;;;;;5.10;1.67;;;10.00;99.90;;;;;;5076426;28;20424;-68
2022/09/18 04:50:54;;;;;;;5.83;2.50;;;10.10;99.90;;;;;;5094414;28;20425;-69
2022/09/18 04:53:20;;;;;;;3.17;1.43;;;10.10;99.90;;;;;;5076533;28;20243;-69
2022/09/18 04:55:46;;;;;;;3.93;1.40;;;10.10;99.90;;;;;;5094144;28;20176;-69
2022/09/18 04:58:13;;;;;;;9.37;1.50;;;10.10;99.90;;;;;;5093558;28;20195;-69
2022/09/18 05:00:39;;;;;;;2.40;1.60;;;10.10;99.90;;;;;;5075521;28;20392;-68
2022/09/18 05:03:05;;;;;;;4.93;1.73;;;10.10;99.90;;;;;;5076026;28;20394;-74
2022/09/18 05:05:31;;;;;;;5.83;1.90;;;10.10;99.90;;;;;;5076285;28;20427;-70
2022/09/18 05:07:58;;;;;;;4.10;1.80;;;10.10;99.90;;;;;;5075271;28;20420;-74
2022/09/18 05:10:25;;;;;;;6.30;2.30;;;10.00;99.90;;;;;;5094050;28;20428;-73
2022/09/18 05:12:51;;;;;;;7.40;1.97;;;10.10;99.90;;;;;;5093155;28;20403;-73
2022/09/18 05:15:17;;;;;;;9.17;2.33;;;10.10;99.90;;;;;;5075760;28;20394;-73
2022/09/18 05:17:43;;;;;;;7.03;2.20;;;10.10;99.90;;;;;;5092728;28;20158;-71
2022/09/18 05:20:09;;;;;;;2.53;1.57;;;10.10;99.90;;;;;;5093703;28;20380;-73
2022/09/18 05:22:35;;;;;;;7.87;2.57;;;10.10;99.90;;;;;;5094139;28;20252;-73
2022/09/18 05:25:02;;;;;;;3.50;1.57;;;10.10;99.90;;;;;;5093806;28;20554;-69
2022/09/18 05:27:28;;;;;;;2.60;1.53;;;10.20;99.90;;;;;;5092875;28;20921;-73
2022/09/18 05:29:54;;;;;;;4.53;1.90;;;10.20;99.90;;;;;;5093716;28;20466;-68
2022/09/18 05:32:20;;;;;;;4.57;1.30;;;10.10;99.90;;;;;;5093761;28;20476;-68
2022/09/18 05:34:48;;;;;;;7.73;2.20;;;10.10;99.90;;;;;;5093553;28;20635;-73
2022/09/18 05:37:13;;;;;;;4.33;1.60;;;10.10;99.90;;;;;;5092359;28;20175;-73
2022/09/18 05:39:40;;;;;;;4.00;2.10;;;10.10;99.90;;;;;;5093406;28;20404;-68
2022/09/18 05:42:05;;;;;;;3.43;1.67;;;10.10;99.90;;;;;;5093703;28;20161;-68
2022/09/18 05:44:31;;;;;;;10.13;2.33;;;10.10;99.90;;;;;;5093653;28;20392;-68
2022/09/18 05:46:57;;;;;;;4.17;1.83;;;10.10;99.90;;;;;;5092664;28;20235;-73
2022/09/18 05:49:22;;;;;;;2.77;1.50;;;10.20;99.90;;;;;;5093433;28;20192;-73
2022/09/18 05:51:48;;;;;;;6.93;1.70;;;10.20;99.90;;;;;;5093386;28;20204;-74
2022/09/18 05:54:14;;;;;;;6.10;1.80;;;10.10;99.90;;;;;;5092960;28;20503;-75
2022/09/18 05:56:43;;;;;;;8.60;1.73;;;10.00;99.90;;;;;;5092278;28;20156;-77
2022/09/18 05:59:08;;;;;;;2.00;1.80;;;10.00;99.90;;;;;;5093355;28;20421;-78
2022/09/18 06:01:34;;;;;;;5.80;1.87;;;9.90;99.90;;;;;;5093059;28;20422;-76
2022/09/18 06:04:01;;;;;;;6.77;1.67;;;9.90;99.90;;;;;;5093369;28;20173;-78
2022/09/18 06:06:28;;;;;;;2.30;1.57;;;10.00;99.90;;;;;;5092408;28;20168;-75
2022/09/18 06:08:53;;;;;;;6.00;1.40;;;9.90;99.90;;;;;;5093074;28;20400;-77
2022/09/18 06:11:19;;;;;;;1.97;1.80;;;9.90;99.90;;;;;;5093186;28;20423;-73
2022/09/18 06:13:47;;;;;;;6.37;1.70;;;9.90;99.90;;;;;;5092709;28;20661;-76
2022/09/18 06:16:15;;;;;;;7.27;1.57;;;9.90;99.90;;;;;;5092155;28;20362;-72
2022/09/18 06:18:40;;;;;;;4.20;1.70;;;10.00;99.90;;;;;;5093074;28;20391;-76
2022/09/18 06:21:06;;;;;;;3.57;1.50;;;10.00;99.90;;;;;;5074853;28;20402;-73
2022/09/18 06:23:32;;;;;;;2.13;1.20;;;10.00;99.90;;;;;;5093032;28;20195;-78
2022/09/18 06:25:59;;;;;;;5.03;1.30;;;10.10;99.90;;;;;;5096310;28;20227;-76
2022/09/18 06:28:25;;;;;;;5.00;2.73;;;10.10;99.90;;;;;;5097007;28;20232;-77
2022/09/18 06:31:06;;;;;;;3.27;2.83;;;10.30;99.90;;;;;;5079186;28;20988;-77
2022/09/18 06:33:42;;;;;;;4.70;1.90;;;10.30;99.90;;;;;;5096494;28;20165;-73
2022/09/18 06:36:43;;;;;;;3.93;1.63;;;10.40;99.90;;;;;;5095586;28;20910;-72
2022/09/18 06:39:10;;;;;;;4.80;1.87;;;10.40;99.90;;;;;;5065703;28;20413;-75
2022/09/18 06:41:36;;;;;;;4.53;1.70;;;10.40;99.90;;;;;;5097018;28;20388;-75
2022/09/18 06:44:01;;;;;;;4.90;1.97;;;10.40;99.90;;;;;;5096725;28;20375;-75
2022/09/18 06:46:27;;;;;;;5.07;1.80;;;10.40;99.90;;;;;;5095761;28;20214;-76
2022/09/18 06:48:53;;;;;;;8.33;2.77;;;10.40;99.90;;;;;;5078612;28;20231;-76
2022/09/18 06:51:18;;;;;;;11.83;1.97;;;10.30;99.90;;;;;;5096567;28;20622;-71
2022/09/18 06:53:44;;;;;;;7.83;1.77;;;10.30;99.90;;;;;;5096706;28;20197;-70
2022/09/18 06:56:10;;;;;;;5.97;1.80;;;10.40;99.90;;;;;;5095787;28;20160;-74
2022/09/18 06:58:35;;;;;;;9.90;1.80;;;10.40;99.90;;;;;;5096858;28;20215;-70
2022/09/18 07:01:04;;;;;;;3.83;1.70;;;10.50;99.90;;;;;;5096624;28;20270;-70
2022/09/18 07:03:30;;;;;;;11.37;2.37;;;10.50;99.90;;;;;;5096527;28;20622;-72
2022/09/18 07:05:55;;;;;;;8.10;2.10;;;10.60;99.90;;;;;;5096424;28;20392;-74
2022/09/18 07:08:21;;;;;;;2.87;1.50;;;10.60;99.90;;;;;;5095219;28;20264;-69
2022/09/18 07:10:47;;;;;;;4.43;1.70;;;10.60;99.90;;;;;;5078218;28;20216;-72
2022/09/18 07:13:13;;;;;;;2.80;1.80;;;10.60;99.90;;;;;;5078218;28;20630;-70
2022/09/18 07:15:38;;;;;;;2.30;1.33;;;10.70;99.90;;;;;;5096298;28;20949;-69
2022/09/18 07:18:06;;;;;;;4.03;1.70;;;10.70;99.90;;;;;;5077173;28;20192;-71
2022/09/18 07:20:32;;;;;;;6.70;3.37;;;10.80;99.90;;;;;;5096321;28;20579;-73
2022/09/18 07:23:00;;;;;;;8.23;1.53;;;11.00;99.90;;;;;;5096219;28;20461;-70
2022/09/18 07:25:28;;;;;;;4.30;2.57;;;11.00;99.90;;;;;;5095591;28;20379;-73
2022/09/18 07:28:04;;;;;;;5.47;1.77;;;11.10;99.90;;;;;;5095289;28;20404;-74
2022/09/18 07:30:32;;;;;;;3.87;2.07;;;11.20;99.90;;;;;;5095944;28;20431;-70
2022/09/18 07:33:00;;;;;;;5.90;1.70;;;11.20;99.90;;;;;;5095993;28;20964;-70
2022/09/18 07:35:26;;;;;;;9.13;1.83;;;11.20;99.90;;;;;;5077574;28;20379;-70
2022/09/18 07:37:55;;;;;;;7.57;2.17;;;11.30;99.90;;;;;;5094323;28;20406;-70
2022/09/18 07:40:21;;;;;;;2.70;1.50;;;11.20;99.90;;;;;;5095778;28;20403;-73
2022/09/18 07:42:46;;;;;;;2.07;1.80;;;11.20;99.90;;;;;;5095831;28;20403;-73
2022/09/18 07:45:12;;;;;;;4.17;1.90;;;11.20;99.90;;;;;;5095229;28;20546;-73
2022/09/18 07:47:38;;;;;;;3.73;1.63;;;11.30;99.90;;;;;;5076895;28;20190;-73
2022/09/18 07:50:04;;;;;;;6.73;2.00;;;11.30;99.90;;;;;;5095670;28;20269;-73
2022/09/18 07:52:30;;;;;;;4.23;1.80;;;11.30;99.90;;;;;;5095638;28;20240;-70
2022/09/18 07:54:56;;;;;;;6.17;1.87;;;11.30;99.90;;;;;;5095327;28;20374;-69
2022/09/18 07:57:22;;;;;;;7.77;2.13;;;11.30;99.90;;;;;;5094786;28;20482;-69
2022/09/18 07:59:48;;;;;;;2.70;1.43;;;11.40;99.90;;;;;;5095447;28;20212;-71
2022/09/18 08:02:14;;;;;;;4.23;1.67;;;11.50;99.90;;;;;;5094996;28;20735;-71
2022/09/18 08:04:40;;;;;;;12.23;1.80;;;11.60;99.90;;;;;;5094197;28;20637;-73
2022/09/18 08:07:06;;;;;;;6.00;2.50;;;11.80;99.90;;;;;;5094594;28;20533;-68
2022/09/18 08:09:31;;;;;;;2.27;1.50;;;11.90;99.90;;;;;;5095277;28;20189;-68
2022/09/18 08:11:57;;;;;;;5.47;1.80;;;12.00;99.90;;;;;;5095473;28;20469;-72
2022/09/18 08:14:23;;;;;;;3.10;1.33;;;12.00;99.90;;;;;;5095294;28;20170;-68
2022/09/18 08:16:49;;;;;;;3.87;1.30;;;11.90;99.90;;;;;;5094283;28;20388;-68
2022/09/18 08:19:15;;;;;;;8.07;2.17;;;11.90;99.90;;;;;;5094617;28;20177;-69
2022/09/18 08:21:40;;;;;;;2.60;1.50;;;12.00;99.90;;;;;;5094371;28;20173;-72
2022/09/18 08:24:06;;;;;;;6.20;2.10;;;12.10;99.90;;;;;;5080282;28;20696;-71
2022/09/18 08:26:35;;;;;;;4.60;1.70;;;12.10;92.80;;;;;;5075958;28;20177;-67
2022/09/18 08:29:00;;;;;;;5.03;1.27;;;12.00;82.20;;;;;;5094271;28;20186;-69
2022/09/18 08:31:26;;;;;;;2.90;1.30;;;12.10;79.00;;;;;;5092082;28;20460;-69
2022/09/18 08:33:52;;;;;;;2.97;1.90;;;12.20;75.00;;;;;;5074784;28;20241;-70
2022/09/18 08:36:18;;;;;;;6.90;1.53;;;12.30;61.50;;;;;;5085086;28;20458;-71
2022/09/18 08:38:44;;;;;;;13.63;2.07;;;12.50;66.40;;;;;;5092196;28;20668;-67
2022/09/18 08:41:47;;;;;;;3.30;1.57;;;12.50;24.10;;;;;;5074509;28;20535;-66
2022/09/18 08:44:23;;;;;;;9.90;1.80;;;12.70;44.40;;;;;;5074457;28;20389;-66
2022/09/18 08:46:55;;;;;;;3.40;1.60;;;12.70;16.50;;;;;;5073583;28;20428;-69
2022/09/18 08:49:38;;;;;;;7.03;1.40;;;12.80;29.30;;;;;;5074425;28;20789;-70
2022/09/18 08:52:09;;;;;;;3.50;1.47;;;12.90;3.30;;;;;;5074286;28;20478;-69
2022/09/18 08:54:39;;;;;;;2.73;1.40;;;12.80;1.00;;;;;;5073751;28;20890;-66
2022/09/18 08:57:26;;;;;;;4.50;1.33;;;12.90;1.00;;;;;;5073556;28;20396;-67
2022/09/18 08:59:58;;;;;;;7.07;1.57;;;13.00;1.00;;;;;;5074129;28;20423;-65
2022/09/18 09:02:36;;;;;;;4.00;1.57;;;13.40;1.00;;;;;;5073937;28;20648;-65
2022/09/18 09:05:09;;;;;;;4.63;1.43;;;13.60;1.00;;;;;;5073977;28;20954;-68
2022/09/18 09:07:47;;;;;;;4.27;1.70;;;13.60;1.00;;;;;;5072935;28;20405;-68
2022/09/18 09:10:22;;;;;;;2.50;1.10;;;13.30;1.00;;;;;;5073840;28;20803;-66
2022/09/18 09:13:12;;;;;;;5.27;1.43;;;13.20;1.00;;;;;;5073251;28;20412;-67
2022/09/18 09:15:55;;;;;;;1.73;0.70;;;12.80;1.00;;;;;;5056360;28;20503;-69
2022/09/18 09:18:59;;;;;;;6.30;1.90;;;12.70;1.00;;;;;;5073259;28;20428;-69
2022/09/18 09:21:48;;;;;;;2.20;0.90;;;12.70;1.00;;;;;;5073757;28;20440;-67
2022/09/18 09:24:52;;;;;;;6.70;1.20;;;12.70;1.00;;;;;;5073750;28;20486;-66
2022/09/18 09:27:31;;;;;;;3.43;1.37;;;12.70;1.00;;;;;;5072934;28;20780;-66
2022/09/18 09:30:12;;;;;;;4.20;1.30;;;12.90;1.00;;;;;;5072961;28;20440;-66
2022/09/18 09:33:04;;;;;;;2.83;1.10;;;13.20;1.00;;;;;;5073648;28;20509;-69
2022/09/18 09:36:02;;;;;;;7.13;1.73;;;13.60;1.00;;;;;;5073372;28;20499;-66
2022/09/18 09:38:55;;;;;;;2.20;1.10;;;14.00;1.00;;;;;;5073024;28;20815;-69
2022/09/18 09:41:27;;;;;;;1.40;0.90;;;14.00;1.00;;;;;;5073344;28;20781;-66
2022/09/18 09:44:05;;;;;;;6.20;0.97;;;13.90;1.00;;;;;;5073439;28;20834;-69
2022/09/18 09:47:00;;;;;;;1.57;1.17;;;13.50;1.00;;;;;;5072729;28;20428;-70
2022/09/18 09:49:48;;;;;;;2.50;0.90;;;13.30;1.00;;;;;;5036290;28;20444;-67
2022/09/18 09:52:23;;;;;;;2.90;1.10;;;13.10;1.00;;;;;;5073259;28;20502;-65
2022/09/18 09:55:07;;;;;;;1.20;1.07;;;13.20;1.00;;;;;;5073260;28;20407;-65
2022/09/18 09:58:00;;;;;;;4.50;1.20;;;13.60;1.00;;;;;;5072354;28;20420;-70
2022/09/18 10:00:30;;;;;;;9.53;1.70;;;14.30;1.00;;;;;;5072744;28;20428;-71
2022/09/18 10:03:11;;;;;;;1.30;1.10;;;14.90;1.00;;;;;;5073114;28;20412;-69
2022/09/18 10:05:47;;;;;;;2.63;1.10;;;15.30;1.00;;;;;;5072980;28;20474;-65
2022/09/18 10:08:34;;;;;;;2.70;1.10;;;15.50;1.00;;;;;;5071966;28;20435;-68
2022/09/18 10:11:12;;;;;;;1.10;0.90;;;15.80;1.00;;;;;;5072373;28;20982;-71
2022/09/18 10:13:47;;;;;;;8.43;1.10;;;16.20;1.00;;;;;;5072942;28;20904;-66
2022/09/18 10:16:39;;;;;;;6.23;1.23;;;16.50;1.00;;;;;;5072337;28;20404;-70
2022/09/18 10:19:05;;;;;;;5.97;1.10;;;16.70;1.00;;;;;;5072119;28;20528;-70
2022/09/18 10:21:35;;;;;;;5.80;3.20;;;15.50;1.00;;;;;;5072746;28;20499;-66
2022/09/18 10:24:34;;;;;;;9.43;1.43;;;14.60;1.00;;;;;;5073012;28;20205;-67
2022/09/18 10:27:09;;;;;;;3.63;1.00;;;14.00;1.00;;;;;;5071479;28;20409;-70
2022/09/18 10:29:35;;;;;;;5.73;1.37;;;13.80;1.00;;;;;;5072735;28;20939;-66
2022/09/18 10:32:01;;;;;;;3.60;1.90;;;13.90;1.00;;;;;;5072803;28;20448;-68
2022/09/18 10:34:34;;;;;;;3.03;1.43;;;14.30;1.00;;;;;;5072690;28;20431;-70
2022/09/18 10:37:00;;;;;;;1.83;0.80;;;15.00;1.00;;;;;;5071946;28;20757;-65
2022/09/18 10:39:32;;;;;;;9.43;1.10;;;15.80;1.00;;;;;;5072596;28;20428;-68
2022/09/18 10:42:04;;;;;;;1.30;0.97;;;16.50;1.00;;;;;;5072674;28;20454;-66
2022/09/18 10:44:38;;;;;;;4.50;1.10;;;17.10;1.00;;;;;;5072456;28;20404;-71
2022/09/18 10:47:09;;;;;;;2.97;1.40;;;17.30;1.00;;;;;;5071594;28;20502;-66
2022/09/18 10:49:39;;;;;;;4.70;1.10;;;17.00;1.00;;;;;;5072459;28;20428;-70
2022/09/18 10:52:37;;;;;;;1.10;0.80;;;16.70;1.00;;;;;;5072435;28;20452;-66
2022/09/18 10:55:06;;;;;;;1.73;0.80;;;16.60;1.00;;;;;;5072583;28;20434;-70
2022/09/18 10:57:33;;;;;;;2.60;0.80;;;16.50;1.00;;;;;;5071981;28;20401;-69
2022/09/18 11:00:00;;;;;;;2.23;0.90;;;16.30;1.00;;;;;;5072497;28;20416;-71
2022/09/18 11:02:37;;;;;;;3.07;1.10;;;16.00;1.00;;;;;;5072596;28;20403;-69
2022/09/18 11:05:03;;;;;;;1.50;1.20;;;15.70;1.00;;;;;;5071962;28;20396;-71
2022/09/18 11:07:30;;;;;;;2.13;0.93;;;15.50;1.00;;;;;;5071867;28;20404;-69
2022/09/18 11:10:05;;;;;;;3.47;0.80;;;15.20;1.00;;;;;;5072667;28;20432;-70
2022/09/18 11:12:33;;;;;;;2.80;0.90;;;15.40;1.00;;;;;;5075053;28;20424;-66
2022/09/18 11:15:06;;;;;;;2.43;1.00;;;15.50;1.00;;;;;;5080255;28;20476;-66
2022/09/18 11:17:47;;;;;;;1.23;0.90;;;15.70;1.00;;;;;;5096108;28;20494;-68
2022/09/18 11:20:21;;;;;;;1.10;1.00;;;15.80;1.00;;;;;;5096572;28;20426;-65
2022/09/18 11:22:47;;;;;;;0.90;0.70;;;15.70;1.00;;;;;;5096738;28;20404;-68
2022/09/18 11:25:31;;;;;;;2.97;1.23;;;15.60;1.00;;;;;;5096649;28;20734;-66
2022/09/18 11:27:59;;;;;;;1.93;1.10;;;15.50;1.00;;;;;;5077395;28;20461;-67
2022/09/18 11:30:33;;;;;;;2.00;0.80;;;15.50;1.00;;;;;;5096368;28;20534;-66
2022/09/18 11:33:26;;;;;;;9.63;2.90;;;15.50;1.00;;;;;;5095952;28;20403;-70
2022/09/18 11:36:00;;;;;;;2.60;1.20;;;15.10;1.00;;;;;;5058105;28;20495;-67
2022/09/18 11:38:27;;;;;;;3.00;1.00;;;14.50;1.00;;;;;;5073044;28;20543;-65
2022/09/18 11:40:56;;;;;;;6.40;1.10;;;13.80;1.00;;;;;;5072588;28;20424;-66
2022/09/18 11:43:27;;;;;;;1.40;0.97;;;13.60;1.00;;;;;;5076092;28;20769;-66
2022/09/18 11:46:25;;;;;;;2.33;0.90;;;13.40;1.00;;;;;;5062196;28;20504;-69
2022/09/18 11:48:58;;;;;;;3.63;1.10;;;13.40;1.00;;;;;;5096223;28;20435;-68
2022/09/18 11:51:30;;;;;;;5.23;1.10;;;13.40;1.00;;;;;;5087305;28;20494;-66
2022/09/18 11:54:25;;;;;;;0.90;0.73;;;13.60;1.00;;;;;;5058080;28;20409;-71
2022/09/18 11:56:57;;;;;;;3.23;1.03;;;13.70;1.00;;;;;;5086408;28;20502;-66
2022/09/18 11:59:28;;;;;;;1.30;0.97;;;13.50;1.00;;;;;;5095838;28;20454;-66
2022/09/18 12:02:04;;;;;;;1.00;0.87;;;13.70;1.00;;;;;;5094216;28;20415;-66
2022/09/18 12:04:51;;;;;;;3.13;1.53;;;13.90;1.00;;;;;;5095885;28;20485;-66
2022/09/18 12:07:33;;;;;;;4.53;0.90;;;14.30;1.00;;;;;;5062240;28;20428;-71
2022/09/18 12:10:17;;;;;;;6.20;1.13;;;14.20;1.00;;;;;;5075547;28;20852;-66
2022/09/18 12:12:50;;;;;;;3.23;0.90;;;14.10;1.00;;;;;;5074516;28;20776;-70
2022/09/18 12:15:26;;;;;;;4.70;1.07;;;14.30;1.00;;;;;;5063669;28;20504;-68
2022/09/18 12:18:03;;;;;;;2.70;1.10;;;14.30;1.00;;;;;;5082339;28;20571;-70
2022/09/18 12:20:47;;;;;;;3.77;1.03;;;14.50;1.00;;;;;;5079988;28;20420;-67
2022/09/18 12:23:21;;;;;;;1.97;1.00;;;14.50;1.00;;;;;;5086636;28;20423;-67
2022/09/18 12:26:06;;;;;;;4.00;0.90;;;14.70;1.00;;;;;;5095167;28;20499;-71
2022/09/18 12:32:25;;;;;;;1.10;0.77;;;15.60;1.00;;;;;;5092522;28;20824;-67
2022/09/18 12:35:20;;;;;;;2.10;0.93;;;15.90;1.00;;;;;;4993703;28;20428;-72
2022/09/18 12:38:20;;;;;;;3.10;1.23;;;15.60;1.00;;;;;;5084075;28;20411;-70
2022/09/18 12:41:00;;;;;;;2.00;0.87;;;15.40;1.00;;;;;;5094912;28;20885;-69
2022/09/18 12:43:37;;;;;;;2.50;1.03;;;15.60;1.00;;;;;;5061606;28;20436;-72
2022/09/18 12:46:53;;;;;;;2.60;0.90;;;16.20;1.00;;;;;;5056014;28;20506;-71
2022/09/18 12:49:25;;;;;;;3.07;0.90;;;16.70;1.00;;;;;;5057009;28;20459;-67
2022/09/18 12:52:28;;;;;;;4.50;1.10;;;17.20;1.00;;;;;;5075858;28;20463;-70
2022/09/18 12:55:25;;;;;;;1.20;0.80;;;17.20;1.00;;;;;;5056678;28;20423;-72
2022/09/18 12:58:12;;;;;;;7.30;1.67;;;17.40;1.00;;;;;;5085926;28;20756;-67
2022/09/18 13:01:17;;;;;;;5.13;2.70;;;17.20;1.00;;;;;;5094930;28;20435;-67
2022/09/18 13:03:46;;;;;;;2.43;1.20;;;17.10;1.00;;;;;;5043136;28;20599;-72
2022/09/18 13:06:15;;;;;;;4.10;0.80;;;16.80;1.00;;;;;;5073434;28;20531;-68
2022/09/18 13:09:06;;;;;;;2.60;1.13;;;16.90;1.00;;;;;;5092305;28;20442;-67
2022/09/18 13:11:42;;;;;;;2.73;0.90;;;16.80;1.00;;;;;;5076284;28;20451;-72
2022/09/18 13:14:24;;;;;;;2.60;1.00;;;16.90;1.00;;;;;;5094558;28;20399;-73
2022/09/18 13:16:57;;;;;;;1.27;0.73;;;17.10;1.00;;;;;;5091449;28;20404;-72
2022/09/18 13:19:40;;;;;;;2.70;0.90;;;17.40;1.00;;;;;;5074103;28;20425;-71
2022/09/18 13:22:14;;;;;;;1.23;0.83;;;17.60;1.00;;;;;;5059684;28;20435;-68